Time;durP1;ratioP1;P1;durP2;ratioP2;P2;SDS_P1;SDS_P2;PMS_P1;PMS_P2;Temp;Humidity;BMP_temperature;BMP_pressure;BME280_temperature;BME280_humidity;BME280_pressure;Samples;Min_cycle;Max_cycle;Signal;HPM_P1;HPM_P2
2021/08/31 00:00:21;;;;;;;;;;;17.20;98.10;;;16.64;93.65;101126.66;4932279;29;19930;-70
2021/08/31 00:02:48;;;;;;;;;;;17.20;98.10;;;16.61;93.71;101126.03;4930880;29;20022;-69
2021/08/31 00:05:15;;;;;;;;;;;17.20;98.10;;;16.55;93.90;101124.13;4931454;29;19931;-69
2021/08/31 00:07:42;;;;;;;;;;;17.20;98.10;;;16.55;94.14;101132.38;4930915;29;19934;-70
2021/08/31 00:10:12;;;;;;;;;;;17.10;98.20;;;16.59;93.80;101132.81;4930783;29;20321;-70
2021/08/31 00:12:41;;;;;;;;;;;17.10;98.30;;;16.57;93.68;101134.91;4930821;29;20505;-70
2021/08/31 00:15:09;;;;;;;;;;;17.10;98.20;;;16.56;94.01;101134.06;4945126;28;19962;-70
2021/08/31 00:17:36;;;;;;;;;;;17.10;98.50;;;16.57;93.91;101137.66;4949616;29;19973;-70
2021/08/31 00:20:05;;;;;;;;;;;17.10;98.50;;;16.59;93.93;101143.78;4949455;29;20010;-70
2021/08/31 00:22:35;;;;;;;;;;;17.10;98.50;;;16.61;94.01;101141.69;4949311;29;19985;-69
2021/08/31 00:25:02;;;;;;;;;;;17.10;98.50;;;16.62;93.71;101137.91;4945010;28;19930;-70
2021/08/31 00:27:30;;;;;;;;;;;17.10;98.40;;;16.60;93.40;101137.22;4925981;29;20042;-70
2021/08/31 00:29:57;;;;;;;;;;;17.10;98.30;;;16.59;93.47;101149.28;4911501;29;19962;-69
2021/08/31 00:32:25;;;;;;;;;;;17.00;98.20;;;16.52;93.31;101141.03;4920941;29;19994;-70
2021/08/31 00:34:53;;;;;;;;;;;17.00;98.00;;;16.51;93.32;101144.00;4943329;28;20029;-70
2021/08/31 00:37:20;;;;;;;;;;;17.00;98.00;;;16.49;92.95;101146.94;4949628;29;19930;-70
2021/08/31 00:39:47;;;;;;;;;;;16.90;97.90;;;16.47;92.86;101150.94;4949536;29;19937;-69
2021/08/31 00:42:16;;;;;;;;;;;16.90;97.90;;;16.49;92.66;101146.13;4944593;29;20361;-70
2021/08/31 00:44:44;;;;;;;;;;;16.90;97.90;;;16.45;92.64;101153.94;4927529;29;19937;-69
2021/08/31 00:47:11;;;;;;;;;;;16.90;97.90;;;16.45;92.32;101147.56;4929176;29;19969;-70
2021/08/31 00:49:38;;;;;;;;;;;16.80;97.70;;;16.40;92.29;101164.69;4923631;29;19962;-70
2021/08/31 00:52:06;;;;;;;;;;;16.80;97.90;;;16.38;92.39;101159.38;4911061;29;19991;-69
2021/08/31 00:54:33;;;;;;;;;;;16.70;98.00;;;16.32;92.00;101165.72;4933371;28;19931;-70
2021/08/31 00:57:01;;;;;;;;;;;16.70;97.80;;;16.33;92.11;101170.13;4948919;29;19965;-69
2021/08/31 00:59:28;;;;;;;;;;;16.70;97.80;;;16.30;92.06;101170.56;4935205;29;19986;-70
2021/08/31 01:01:57;;;;;;;;;;;16.70;97.90;;;16.29;92.08;101165.28;4928516;29;20545;-69
2021/08/31 01:04:25;;;;;;;;;;;16.70;97.90;;;16.29;91.86;101170.78;4939266;28;19962;-70
2021/08/31 01:06:53;;;;;;;;;;;16.60;97.80;;;16.26;91.85;101165.69;4949333;29;19970;-70
2021/08/31 01:09:21;;;;;;;;;;;16.60;97.70;;;16.26;91.75;101168.44;4949223;29;19970;-69
2021/08/31 01:11:49;;;;;;;;;;;16.50;97.70;;;16.23;91.71;101167.78;4949291;29;19958;-70
2021/08/31 01:14:16;;;;;;;;;;;16.50;97.80;;;16.22;91.82;101168.00;4943307;28;20728;-71
2021/08/31 01:16:45;;;;;;;;;;;16.50;98.00;;;16.17;91.69;101176.03;4910755;29;19937;-71
2021/08/31 01:19:13;;;;;;;;;;;16.50;98.00;;;16.15;91.91;101169.88;4909470;29;20792;-71
2021/08/31 01:21:40;;;;;;;;;;;16.50;97.90;;;16.14;91.91;101174.50;4910894;29;19995;-70
2021/08/31 01:24:08;;;;;;;;;;;16.50;98.00;;;16.16;91.40;101171.56;4929103;28;20041;-71
2021/08/31 01:26:37;;;;;;;;;;;16.40;97.70;;;16.11;91.35;101174.09;4948343;29;19941;-70
2021/08/31 01:29:04;;;;;;;;;;;16.40;97.70;;;16.09;91.45;101176.19;4948857;29;19985;-71
2021/08/31 01:31:31;;;;;;;;;;;16.40;97.70;;;16.07;91.21;101173.66;4946141;29;20444;-71
2021/08/31 01:33:58;;;;;;;;;;;16.40;97.60;;;16.09;91.31;101170.69;4935696;28;20449;-70
2021/08/31 01:36:26;;;;;;;;;;;16.40;97.70;;;16.08;91.47;101174.50;4948635;29;19934;-71
2021/08/31 01:38:55;;;;;;;;;;;16.40;97.70;;;16.08;91.55;101177.25;4948614;29;19931;-71
2021/08/31 01:41:24;;;;;;;;;;;16.40;97.80;;;16.04;91.68;101174.06;4930861;29;19967;-70
2021/08/31 01:43:52;;;;;;;;;;;16.40;97.90;;;16.01;92.07;101180.81;4919204;29;19930;-71
2021/08/31 01:46:19;;;;;;;;;;;16.40;98.00;;;16.03;91.95;101183.38;4929451;29;20363;-71
2021/08/31 01:48:47;;;;;;;;;;;16.40;98.10;;;16.00;92.11;101184.59;4929739;29;20402;-71
2021/08/31 01:51:14;;;;;;;;;;;16.40;98.00;;;15.99;92.32;101185.66;4929583;29;20350;-71
2021/08/31 01:53:41;;;;;;;;;;;16.40;98.00;;;15.98;92.16;101189.44;4930025;29;20014;-71
2021/08/31 01:56:08;;;;;;;;;;;16.40;98.00;;;15.96;92.45;101194.28;4926668;29;20054;-70
2021/08/31 01:58:35;;;;;;;;;;;16.40;98.00;;;15.98;92.64;101192.19;4931039;29;20719;-71
2021/08/31 02:01:04;;;;;;;;;;;16.40;98.00;;;15.97;92.92;101190.50;4932696;29;19938;-71
2021/08/31 02:03:31;;;;;;;;;;;16.50;98.10;;;15.98;93.31;101194.94;4934097;29;19930;-70
2021/08/31 02:05:58;;;;;;;;;;;16.50;98.50;;;16.00;93.49;101189.25;4932525;29;19970;-70
2021/08/31 02:08:25;;;;;;;;;;;16.50;98.60;;;15.99;93.69;101193.91;4937493;29;20749;-71
2021/08/31 02:10:53;;;;;;;;;;;16.50;98.60;;;15.98;93.82;101189.44;4952072;29;19930;-71
2021/08/31 02:13:20;;;;;;;;;;;16.50;98.60;;;15.99;93.96;101193.03;4938342;29;20009;-71
2021/08/31 02:15:47;;;;;;;;;;;16.50;98.70;;;15.98;94.32;101192.19;4951085;28;19931;-71
2021/08/31 02:18:16;;;;;;;;;;;16.60;98.70;;;16.00;94.32;101197.47;4952763;29;19934;-71
2021/08/31 02:20:43;;;;;;;;;;;16.60;98.90;;;16.02;94.27;101187.97;4952660;29;20033;-70
2021/08/31 02:23:10;;;;;;;;;;;16.60;99.00;;;16.03;94.60;101197.09;4946882;29;19935;-71
2021/08/31 02:25:37;;;;;;;;;;;16.60;99.00;;;16.03;94.88;101199.84;4914012;29;20038;-71
2021/08/31 02:28:04;;;;;;;;;;;16.60;99.30;;;16.05;94.85;101192.25;4914220;29;19975;-71
2021/08/31 02:30:32;;;;;;;;;;;16.60;99.50;;;16.06;94.72;101187.59;4913302;29;20033;-71
2021/08/31 02:33:02;;;;;;;;;;;16.60;99.50;;;16.05;94.83;101191.38;4915882;29;19931;-71
2021/08/31 02:35:32;;;;;;;;;;;16.60;99.60;;;16.03;95.05;101197.09;4950541;28;20424;-71
2021/08/31 02:38:00;;;;;;;;;;;16.60;99.40;;;16.05;95.33;101197.72;4952514;29;20001;-70
2021/08/31 02:40:27;;;;;;;;;;;16.60;99.50;;;16.07;95.22;101189.25;4951969;29;20461;-71
2021/08/31 02:42:54;;;;;;;;;;;16.60;99.60;;;16.07;95.46;101197.50;5004719;23;19929;-67
2021/08/31 02:45:21;;;;;;;;;;;16.60;99.70;;;16.06;95.49;101193.91;5048617;28;19960;-67
2021/08/31 02:47:48;;;;;;;;;;;16.70;99.90;;;16.06;95.74;101193.06;5030640;28;19933;-67
2021/08/31 02:50:15;;;;;;;;;;;16.70;99.80;;;16.07;96.02;101192.00;5018506;28;19930;-67
2021/08/31 02:52:45;;;;;;;;;;;16.70;99.90;;;16.07;96.31;101178.28;5010587;28;20467;-67
2021/08/31 02:55:13;;;;;;;;;;;16.70;99.90;;;16.10;96.39;101191.63;5045332;28;20480;-67
2021/08/31 02:57:40;;;;;;;;;;;16.70;99.90;;;16.10;96.58;101188.88;5049967;28;19924;-67
2021/08/31 03:00:17;;;;;;;;;;;16.70;99.90;;;16.09;96.63;101184.41;5050163;28;19957;-67
2021/08/31 03:02:44;;;;;;;;;;;16.80;99.90;;;16.10;96.38;101183.38;5049025;28;19960;-67
2021/08/31 03:05:12;;;;;;;;;;;16.80;99.90;;;16.10;96.64;101183.38;5045005;28;20381;-68
2021/08/31 03:07:39;;;;;;;;;;;16.80;99.90;;;16.10;96.66;101189.72;5049665;28;20026;-67
2021/08/31 03:10:09;;;;;;;;;;;16.80;99.90;;;16.12;96.53;101182.09;5047469;28;19971;-67
2021/08/31 03:12:36;;;;;;;;;;;16.80;99.90;;;16.12;96.57;101195.84;5031784;28;20307;-67
2021/08/31 03:15:03;;;;;;;;;;;16.80;99.90;;;16.13;96.54;101189.31;5025344;28;20552;-67
2021/08/31 03:17:30;;;;;;;;;;;16.80;99.90;;;16.11;96.55;101198.81;5029645;28;20365;-68
2021/08/31 03:19:58;;;;;;;;;;;16.80;99.90;;;16.11;96.67;101198.81;5029583;28;19929;-67
2021/08/31 03:22:25;;;;;;;;;;;16.80;99.90;;;16.13;96.63;101193.97;5029080;28;19935;-67
2021/08/31 03:24:52;;;;;;;;;;;16.80;99.90;;;16.13;96.63;101204.94;5009609;28;20417;-67
2021/08/31 03:27:20;;;;;;;;;;;16.80;99.90;;;16.14;96.66;101203.88;5009816;28;19929;-67
2021/08/31 03:29:47;;;;;;;;;;;16.80;99.90;;;16.13;96.66;101207.69;5009989;28;20047;-67
2021/08/31 03:32:14;;;;;;;;;;;16.80;99.90;;;16.14;96.73;101212.13;5010509;28;19929;-67
2021/08/31 03:34:41;;;;;;;;;;;16.80;99.90;;;16.09;96.85;101212.75;5029148;28;19929;-67
2021/08/31 03:37:08;;;;;;;;;;;16.80;99.90;;;16.09;96.94;101203.63;5029462;28;20051;-67
2021/08/31 03:39:36;;;;;;;;;;;16.80;99.90;;;16.08;97.12;101202.78;5011668;28;19932;-67
2021/08/31 03:42:03;;;;;;;;;;;16.80;99.90;;;16.08;97.08;101205.53;5007015;28;19934;-67
2021/08/31 03:44:32;;;;;;;;;;;16.80;99.90;;;16.08;97.23;101212.94;5017018;28;20011;-67
2021/08/31 03:46:59;;;;;;;;;;;16.80;99.90;;;16.08;97.31;101208.28;5028975;28;19935;-67
2021/08/31 03:49:26;;;;;;;;;;;16.80;99.90;;;16.07;97.46;101211.22;5027909;28;19955;-67
2021/08/31 03:51:53;;;;;;;;;;;16.80;99.90;;;16.04;97.85;101218.00;5028827;28;19972;-67
2021/08/31 03:54:21;;;;;;;;;;;16.80;99.90;;;16.06;97.86;101217.78;5028735;28;19929;-67
2021/08/31 03:56:48;;;;;;;;;;;16.80;99.90;;;16.08;97.74;101216.53;5028513;28;19929;-67
2021/08/31 03:59:15;;;;;;;;;;;16.80;99.90;;;16.11;97.72;101226.28;5028344;28;20472;-67
2021/08/31 04:01:44;;;;;;;;;;;16.80;99.90;;;16.10;97.94;101221.81;5028378;28;19936;-66
2021/08/31 04:04:11;;;;;;;;;;;16.80;99.90;;;16.10;98.11;101227.31;5028426;28;19929;-67
2021/08/31 04:06:38;;;;;;;;;;;16.80;99.90;;;16.11;98.05;101223.53;5026440;28;19969;-67
2021/08/31 04:09:05;;;;;;;;;;;16.80;99.90;;;16.11;98.02;101223.53;5028227;28;19929;-69
2021/08/31 04:11:32;;;;;;;;;;;16.80;99.90;;;16.09;98.09;101218.22;5026536;28;19925;-67
2021/08/31 04:13:59;;;;;;;;;;;16.80;99.90;;;16.12;98.11;101222.47;5028177;28;20529;-67
2021/08/31 04:16:26;;;;;;;;;;;16.80;99.90;;;16.14;98.06;101223.94;5027866;28;20027;-67
2021/08/31 04:18:54;;;;;;;;;;;16.80;99.90;;;16.13;98.03;101222.25;5027868;28;19929;-67
2021/08/31 04:21:21;;;;;;;;;;;16.80;99.90;;;16.13;98.03;101229.66;5027507;28;19925;-67
2021/08/31 04:23:48;;;;;;;;;;;16.80;99.90;;;16.13;98.01;101232.41;5028837;28;20022;-68
2021/08/31 04:26:16;;;;;;;;;;;16.80;99.90;;;16.13;97.92;101237.91;5027661;28;20328;-69
2021/08/31 04:28:43;;;;;;;;;;;16.80;99.90;;;16.13;98.01;101235.16;5028208;28;19933;-70
2021/08/31 04:31:10;;;;;;;;;;;16.80;99.90;;;16.13;97.87;101237.91;5027787;28;19929;-69
2021/08/31 04:33:37;;;;;;;;;;;16.80;99.90;;;16.12;97.98;101239.78;5025121;28;20376;-72
2021/08/31 04:36:05;;;;;;;;;;;16.80;99.90;;;16.10;98.06;101244.63;5027558;28;19959;-72
2021/08/31 04:38:32;;;;;;;;;;;16.80;99.90;;;16.12;97.99;101247.19;5027476;28;19929;-69
2021/08/31 04:41:00;;;;;;;;;;;16.80;99.90;;;16.10;97.92;101247.38;5027675;28;19983;-69
2021/08/31 04:43:27;;;;;;;;;;;16.70;99.90;;;16.08;97.92;101245.88;5027594;28;20409;-69
2021/08/31 04:45:54;;;;;;;;;;;16.70;99.90;;;16.10;97.78;101246.53;5027296;28;19933;-70
2021/08/31 04:48:21;;;;;;;;;;;16.70;99.90;;;16.09;97.88;101247.56;5007259;28;20103;-70
2021/08/31 04:50:48;;;;;;;;;;;16.70;99.90;;;16.09;97.87;101253.06;5010597;28;20407;-70
2021/08/31 04:53:17;;;;;;;;;;;16.70;99.90;;;16.07;98.06;101250.53;5012804;28;19999;-69
2021/08/31 04:55:44;;;;;;;;;;;16.70;99.90;;;16.08;98.35;101262.38;5021796;28;20024;-69
2021/08/31 04:58:11;;;;;;;;;;;16.70;99.90;;;16.05;98.39;101269.13;5007269;28;19929;-70
2021/08/31 05:00:38;;;;;;;;;;;16.70;99.90;;;16.06;98.59;101269.97;5007259;28;19960;-70
2021/08/31 05:03:05;;;;;;;;;;;16.80;99.90;;;16.08;98.54;101273.34;5007560;28;19935;-70
2021/08/31 05:05:32;;;;;;;;;;;16.80;99.90;;;16.09;98.85;101273.16;4989417;28;19976;-69
2021/08/31 05:08:00;;;;;;;;;;;16.70;99.90;;;16.07;98.95;101271.63;5006973;28;19939;-70
2021/08/31 05:10:29;;;;;;;;;;;16.80;99.90;;;16.09;98.64;101267.66;5007328;28;19964;-70
2021/08/31 05:12:56;;;;;;;;;;;16.80;99.90;;;16.09;98.54;101272.28;5007461;28;19926;-69
2021/08/31 05:15:23;;;;;;;;;;;16.80;99.90;;;16.08;98.35;101278.84;5007277;28;20051;-70
2021/08/31 05:17:50;;;;;;;;;;;16.80;99.90;;;16.02;98.86;101286.81;5028923;28;20423;-69
2021/08/31 05:20:18;;;;;;;;;;;16.80;99.90;;;16.02;98.45;101275.84;5005463;28;19955;-70
2021/08/31 05:22:45;;;;;;;;;;;16.80;99.90;;;16.04;98.37;101278.41;5007596;28;19937;-70
2021/08/31 05:25:12;;;;;;;;;;;16.70;99.90;;;16.06;98.12;101280.94;5006718;28;20009;-70
2021/08/31 05:27:41;;;;;;;;;;;16.70;99.90;;;16.02;98.21;101281.34;5008044;28;19976;-69
2021/08/31 05:30:09;;;;;;;;;;;16.70;99.90;;;16.03;98.07;101287.69;5009494;28;19929;-69
2021/08/31 05:32:36;;;;;;;;;;;16.70;99.90;;;16.01;97.90;101285.16;5026809;28;20367;-69
2021/08/31 05:35:03;;;;;;;;;;;16.70;99.90;;;15.99;98.02;101298.22;5030346;28;19925;-68
2021/08/31 05:37:30;;;;;;;;;;;16.70;99.90;;;16.00;98.17;101299.91;5030742;28;20059;-69
2021/08/31 05:39:57;;;;;;;;;;;16.70;99.90;;;16.01;98.25;101304.38;5030948;28;19968;-69
2021/08/31 05:42:25;;;;;;;;;;;16.70;99.90;;;16.01;98.20;101301.63;5031335;28;19957;-69
2021/08/31 05:44:53;;;;;;;;;;;16.70;99.90;;;15.99;98.28;101308.34;5030479;28;19933;-69
2021/08/31 05:47:20;;;;;;;;;;;16.70;99.90;;;15.98;98.06;101302.00;5030026;28;19929;-68
2021/08/31 05:49:47;;;;;;;;;;;16.70;99.90;;;15.98;97.92;101307.50;5046516;28;19932;-69
2021/08/31 05:52:14;;;;;;;;;;;16.70;99.90;;;16.00;98.07;101310.06;5045802;28;19975;-68
2021/08/31 05:54:41;;;;;;;;;;;16.70;99.90;;;16.03;97.98;101312.41;5051163;28;20778;-69
2021/08/31 05:57:10;;;;;;;;;;;16.70;99.90;;;16.03;97.71;101316.00;5038971;28;20430;-69
2021/08/31 05:59:39;;;;;;;;;;;16.70;99.90;;;16.04;97.78;101327.81;5011132;28;20314;-69
2021/08/31 06:02:09;;;;;;;;;;;16.70;99.90;;;16.02;97.93;101325.25;5011552;28;19951;-69
2021/08/31 06:04:36;;;;;;;;;;;16.70;99.90;;;15.99;98.07;101331.19;5010814;28;19983;-68
2021/08/31 06:07:05;;;;;;;;;;;16.70;99.90;;;15.96;98.48;101330.72;5015254;28;20035;-68
2021/08/31 06:09:35;;;;;;;;;;;16.70;99.90;;;15.98;98.44;101334.13;5023443;28;19929;-68
2021/08/31 06:12:02;;;;;;;;;;;16.70;99.90;;;16.00;98.54;101332.03;5010957;28;20290;-68
2021/08/31 06:14:30;;;;;;;;;;;16.70;99.90;;;16.00;98.43;101335.59;5010563;28;19929;-68
2021/08/31 06:16:57;;;;;;;;;;;16.70;99.90;;;16.00;98.44;101338.34;5026892;28;19929;-68
2021/08/31 06:19:25;;;;;;;;;;;16.70;99.90;;;16.03;98.36;101337.97;5030602;28;19964;-69
2021/08/31 06:21:52;;;;;;;;;;;16.70;99.90;;;16.00;98.58;101337.50;5030516;28;20035;-68
2021/08/31 06:24:19;;;;;;;;;;;16.70;99.90;;;16.00;98.38;101337.50;5015010;28;19969;-68
2021/08/31 06:26:46;;;;;;;;;;;16.70;99.90;;;15.95;98.46;101340.84;5011401;28;20037;-69
2021/08/31 06:29:13;;;;;;;;;;;16.70;99.90;;;15.98;98.37;101345.09;5030731;28;19925;-68
2021/08/31 06:31:40;;;;;;;;;;;16.70;99.90;;;15.97;98.68;101343.38;5029929;28;20409;-69
2021/08/31 06:34:08;;;;;;;;;;;16.70;99.90;;;15.94;98.83;101344.66;5030390;28;20343;-69
2021/08/31 06:36:36;;;;;;;;;;;16.70;99.90;;;15.96;98.74;101348.03;5028521;28;20033;-69
2021/08/31 06:39:03;;;;;;;;;;;16.80;99.90;;;15.98;98.51;101345.94;5048285;28;19971;-69
2021/08/31 06:41:31;;;;;;;;;;;16.80;99.90;;;15.95;98.77;101351.81;5029650;28;19929;-69
2021/08/31 06:43:58;;;;;;;;;;;16.80;99.90;;;15.94;98.97;101355.63;5029443;28;19936;-69
2021/08/31 06:46:25;;;;;;;;;;;16.80;99.90;;;15.96;98.66;101352.69;5028917;28;19971;-68
2021/08/31 06:48:52;;;;;;;;;;;16.80;99.90;;;15.99;98.40;101364.13;5020410;28;20455;-69
2021/08/31 06:51:19;;;;;;;;;;;16.80;99.90;;;15.99;98.49;101363.25;5010038;28;20475;-69
2021/08/31 06:53:47;;;;;;;;;;;16.80;99.90;;;16.00;98.66;101363.06;5009518;28;19929;-69
2021/08/31 06:56:14;;;;;;;;;;;16.90;99.90;;;15.96;99.04;101367.25;5011520;28;19961;-69
2021/08/31 06:58:41;;;;;;;;;;;16.90;99.90;;;15.97;98.93;101363.47;5025911;28;19972;-68
2021/08/31 07:01:08;;;;;;;;;;;16.90;99.90;;;16.00;98.82;101364.97;5015540;28;19972;-68
2021/08/31 07:03:35;;;;;;;;;;;16.90;99.90;;;16.01;98.77;101366.66;5010079;28;19929;-69
2021/08/31 07:06:02;;;;;;;;;;;16.90;99.90;;;16.01;98.70;101367.53;5020383;28;20470;-69
2021/08/31 07:08:30;;;;;;;;;;;16.90;99.90;;;16.06;98.48;101374.31;5038227;28;19997;-69
2021/08/31 07:10:58;;;;;;;;;;;16.80;99.90;;;16.05;98.50;101372.59;5029737;28;20028;-68
2021/08/31 07:13:25;;;;;;;;;;;16.90;99.90;;;16.07;98.41;101376.84;5029673;28;19964;-68
2021/08/31 07:15:52;;;;;;;;;;;16.90;99.90;;;16.08;98.41;101380.44;5029185;28;19965;-68
2021/08/31 07:18:19;;;;;;;;;;;16.90;99.90;;;16.08;98.27;101377.69;5028512;28;19929;-68
2021/08/31 07:20:46;;;;;;;;;;;16.90;99.90;;;16.07;98.77;101382.34;5029494;28;20027;-69
2021/08/31 07:23:14;;;;;;;;;;;16.90;99.90;;;16.05;99.19;101383.56;5029428;28;19925;-69
2021/08/31 07:25:42;;;;;;;;;;;17.00;99.90;;;16.03;99.24;101381.91;5011031;28;19999;-69
2021/08/31 07:28:11;;;;;;;;;;;17.00;99.90;;;16.01;99.46;101386.75;5019405;28;20616;-69
2021/08/31 07:30:39;;;;;;;;;;;16.90;99.90;;;15.99;99.84;101383.34;5049038;28;20023;-69
2021/08/31 07:33:06;;;;;;;;;;;16.90;99.90;;;16.03;99.62;101387.38;5049320;28;19983;-69
2021/08/31 07:35:33;;;;;;;;;;;16.90;99.90;;;16.06;99.59;101380.63;5048547;28;20225;-69
2021/08/31 07:38:01;;;;;;;;;;;17.00;99.90;;;16.05;100.00;101386.31;5028905;28;20581;-69
2021/08/31 07:40:28;;;;;;;;;;;17.00;99.90;;;16.08;99.79;101383.19;5028815;28;19994;-69
2021/08/31 07:42:55;;;;;;;;;;;17.10;99.90;;;16.11;99.77;101382.78;5029228;28;19929;-69
2021/08/31 07:45:24;;;;;;;;;;;17.10;99.90;;;16.10;99.84;101383.84;5028792;28;19929;-69
2021/08/31 07:47:51;;;;;;;;;;;17.10;99.90;;;16.09;100.00;101380.25;5034903;28;19929;-69
2021/08/31 07:50:18;;;;;;;;;;;17.10;99.90;;;16.16;100.00;101380.28;5048594;28;19967;-69
2021/08/31 07:52:46;;;;;;;;;;;17.10;99.90;;;16.17;100.00;101392.97;5046094;28;19935;-69
2021/08/31 07:55:15;;;;;;;;;;;17.20;99.90;;;16.18;100.00;101394.66;5027844;28;19929;-69
2021/08/31 07:57:43;;;;;;;;;;;17.20;99.90;;;16.18;99.84;101400.16;5033166;28;19935;-69
2021/08/31 08:00:13;;;;;;;;;;;17.20;99.90;;;16.17;100.00;101403.97;5048480;28;19944;-68
2021/08/31 08:02:41;;;;;;;;;;;17.20;99.90;;;16.19;99.87;101410.94;5031397;28;19936;-68
2021/08/31 08:05:10;;;;;;;;;;;17.20;99.90;;;16.22;99.86;101406.94;5028525;28;19930;-68
2021/08/31 08:07:37;;;;;;;;;;;17.20;99.90;;;16.23;99.93;101408.66;5010862;28;19933;-68
2021/08/31 08:10:05;;;;;;;;;;;17.20;99.90;;;16.23;99.86;101408.66;5017465;28;19933;-69
2021/08/31 08:12:32;;;;;;;;;;;17.20;99.90;;;16.26;99.96;101416.50;5012589;28;20027;-69
2021/08/31 08:15:00;;;;;;;;;;;17.20;99.90;;;16.27;99.84;101418.19;5019465;28;19925;-68
2021/08/31 08:17:27;;;;;;;;;;;17.30;99.90;;;16.29;100.00;101418.81;5023090;28;20029;-68
2021/08/31 08:19:56;;;;;;;;;;;17.40;99.80;;;16.32;100.00;101418.44;5010047;28;20439;-68
2021/08/31 08:22:23;;;;;;;;;;;17.40;99.80;;;16.31;100.00;101422.22;5008488;28;19984;-68
2021/08/31 08:24:50;;;;;;;;;;;17.50;99.50;;;16.35;100.00;101418.03;4990162;28;20652;-68
2021/08/31 08:27:18;;;;;;;;;;;17.60;99.10;;;16.39;100.00;101423.97;5024634;28;19935;-69
2021/08/31 08:29:45;;;;;;;;;;;17.60;98.70;;;16.40;100.00;101420.19;5044729;28;19995;-69
2021/08/31 08:32:13;;;;;;;;;;;17.70;99.10;;;16.42;100.00;101418.06;5017862;28;20032;-69
2021/08/31 08:34:40;;;;;;;;;;;17.80;98.80;;;16.47;100.00;101420.22;5020502;28;19925;-69
2021/08/31 08:37:09;;;;;;;;;;;17.90;98.70;;;16.49;100.00;101421.72;5018632;28;20023;-69
2021/08/31 08:39:36;;;;;;;;;;;18.00;98.40;;;16.52;100.00;101428.72;5022217;28;19991;-68
2021/08/31 08:44:31;;;;;;;;;;;18.00;96.60;;;16.56;99.67;101425.38;5008935;28;19936;-66
2021/08/31 08:46:58;;;;;;;;;;;18.00;97.20;;;16.59;100.00;101421.34;5006246;28;20024;-66
2021/08/31 08:49:26;;;;;;;;;;;18.20;97.40;;;16.66;99.92;101416.75;4997197;28;20313;-67
2021/08/31 08:51:54;;;;;;;;;;;18.30;96.90;;;16.69;100.00;101413.59;5006316;28;19951;-66
2021/08/31 08:54:23;;;;;;;;;;;18.50;96.70;;;16.76;99.66;101414.47;5000094;28;20380;-66
2021/08/31 08:56:51;;;;;;;;;;;18.70;94.80;;;16.84;100.00;101407.16;5006927;28;19973;-66
2021/08/31 08:59:19;;;;;;;;;;;18.90;94.70;;;16.96;100.00;101414.63;5008006;28;20007;-66
2021/08/31 09:01:49;;;;;;;;;;;19.10;95.20;;;17.05;100.00;101408.94;5007838;28;20467;-67
2021/08/31 09:04:17;;;;;;;;;;;19.40;94.40;;;17.12;100.00;101413.41;5007458;28;19953;-67
2021/08/31 09:06:44;;;;;;;;;;;19.50;93.70;;;17.16;99.93;101411.09;5006601;28;19934;-66
2021/08/31 09:09:12;;;;;;;;;;;19.60;92.00;;;17.23;98.56;101408.34;5014481;28;20024;-66
2021/08/31 09:11:45;;;;;;;;;;;19.60;91.70;;;17.24;96.98;101405.38;4999762;28;19929;-66
2021/08/31 09:14:19;;;;;;;;;;;19.60;90.50;;;17.29;96.58;101402.88;4988096;28;19929;-67
2021/08/31 09:16:48;;;;;;;;;;;19.70;89.40;;;17.35;96.15;101406.72;5016256;28;19982;-67
2021/08/31 09:19:19;;;;;;;;;;;19.80;90.30;;;17.41;95.89;101411.38;5026935;28;19926;-67
2021/08/31 09:21:48;;;;;;;;;;;19.90;88.90;;;17.45;94.85;101417.31;4997484;28;19933;-67
2021/08/31 09:24:16;;;;;;;;;;;20.00;88.80;;;17.48;93.82;101417.75;5007749;28;19932;-68
2021/08/31 09:26:46;;;;;;;;;;;20.00;88.80;;;17.49;93.48;101418.59;5006812;28;20412;-67
2021/08/31 09:29:17;;;;;;;;;;;19.80;87.60;;;17.50;93.72;101412.03;4999461;28;20447;-67
2021/08/31 09:31:54;;;;;;;;;;;19.70;89.00;;;17.51;92.95;101410.97;4989747;28;19975;-68
2021/08/31 09:34:43;;;;;;;;;;;19.70;88.90;;;17.55;93.82;101412.25;5007238;28;19987;-68
2021/08/31 09:37:34;;;;;;;;;;;19.80;89.40;;;17.60;93.27;101415.22;5003908;28;19937;-68
2021/08/31 09:40:11;;;;;;;;;;;20.00;88.70;;;17.66;92.03;101411.63;5004454;28;20545;-67
2021/08/31 09:42:54;;;;;;;;;;;20.10;86.80;;;17.72;91.94;101413.53;5010381;28;19929;-67
2021/08/31 09:45:25;;;;;;;;;;;20.10;87.30;;;17.71;89.79;101419.28;5005784;28;19929;-67
2021/08/31 09:47:54;;;;;;;;;;;20.00;86.10;;;17.72;91.48;101418.19;5016062;28;19999;-68
2021/08/31 09:50:36;;;;;;;;;;;20.00;87.80;;;17.73;92.06;101414.41;5022004;28;20027;-68
2021/08/31 09:53:14;;;;;;;;;;;20.00;88.40;;;17.72;91.47;101415.44;5001547;28;20372;-68
2021/08/31 09:55:42;;;;;;;;;;;19.90;88.50;;;17.73;91.27;101411.66;5000414;28;19930;-67
2021/08/31 09:58:13;;;;;;;;;;;19.90;88.30;;;17.74;91.72;101405.94;5004406;28;19937;-67
2021/08/31 10:00:42;;;;;;;;;;;19.90;88.10;;;17.75;91.29;101409.53;5001901;28;19929;-67
2021/08/31 10:03:09;;;;;;;;;;;19.90;88.00;;;17.85;94.10;101407.22;4995088;28;19936;-68
2021/08/31 10:05:37;;;;;;;;;;;20.00;89.30;;;17.90;93.01;101410.19;4988405;28;19965;-68
2021/08/31 10:08:05;;;;;;;;;;;20.00;88.70;;;17.91;91.10;101408.28;5001258;28;19930;-68
2021/08/31 10:10:33;;;;;;;;;;;20.00;87.90;;;17.97;89.46;101410.19;5001524;28;19929;-68
2021/08/31 10:13:03;;;;;;;;;;;20.10;87.10;;;18.03;89.20;101408.50;5004775;28;20831;-68
2021/08/31 10:15:35;;;;;;;;;;;20.10;86.80;;;18.01;88.37;101410.63;5001089;28;21796;-68
2021/08/31 10:18:03;;;;;;;;;;;20.10;85.20;;;17.98;87.70;101404.47;5002951;28;19929;-68
2021/08/31 10:20:32;;;;;;;;;;;20.00;85.60;;;17.94;87.97;101407.88;5006874;28;19929;-68
2021/08/31 10:22:59;;;;;;;;;;;19.90;86.50;;;17.92;88.83;101408.09;5000711;28;19936;-67
2021/08/31 10:25:28;;;;;;;;;;;19.90;86.60;;;17.92;89.02;101407.25;4994314;28;19926;-67
2021/08/31 10:27:59;;;;;;;;;;;19.90;86.60;;;17.91;88.69;101411.88;5010060;28;19930;-68
2021/08/31 10:30:38;;;;;;;;;;;19.90;87.00;;;17.94;87.63;101408.72;4982844;28;20044;-68
2021/08/31 10:33:36;;;;;;;;;;;19.90;85.20;;;17.94;85.21;101416.97;5004725;28;19980;-68
2021/08/31 10:36:05;;;;;;;;;;;19.90;83.70;;;17.98;83.87;101418.25;4999006;28;19930;-67
2021/08/31 10:38:45;;;;;;;;;;;19.90;83.70;;;18.01;83.00;101416.13;5009652;28;19952;-67
2021/08/31 10:41:36;;;;;;;;;;;20.00;82.40;;;18.00;82.55;101414.44;5009760;28;19999;-68
2021/08/31 10:44:05;;;;;;;;;;;19.90;81.10;;;18.05;83.67;101417.38;5009626;28;19936;-68
2021/08/31 10:47:09;;;;;;;;;;;19.90;83.40;;;18.08;85.63;101423.31;5009297;28;20011;-68
2021/08/31 10:50:12;;;;;;;;;;;20.00;82.90;;;18.13;83.55;101412.53;5008116;28;19975;-68
2021/08/31 10:52:42;;;;;;;;;;;20.10;83.60;;;18.12;81.74;101423.75;4985751;28;20468;-68
2021/08/31 10:55:48;;;;;;;;;;;20.10;80.60;;;18.12;79.75;101418.25;5009020;28;19930;-68
2021/08/31 10:58:31;;;;;;;;;;;20.10;80.50;;;18.11;79.22;101427.59;4998037;28;19952;-67
2021/08/31 11:00:58;;;;;;;;;;;20.00;80.30;;;18.08;78.63;101428.84;5007102;28;19992;-69
2021/08/31 11:03:37;;;;;;;;;;;20.00;79.50;;;18.08;78.90;101426.09;5020916;28;20006;-69
2021/08/31 11:06:32;;;;;;;;;;;20.10;80.20;;;18.13;77.62;101436.47;5021853;28;19928;-68
2021/08/31 11:09:15;;;;;;;;;;;20.20;79.10;;;18.15;76.69;101429.69;5029645;28;19925;-68
2021/08/31 11:11:44;;;;;;;;;;;20.20;78.70;;;18.17;75.68;101422.06;5021381;28;19925;-68
2021/08/31 11:14:13;;;;;;;;;;;20.20;78.20;;;18.23;74.16;101419.53;5009367;28;19988;-68
2021/08/31 11:16:41;;;;;;;;;;;20.20;76.80;;;18.24;74.75;101424.81;5009022;28;19929;-68
2021/08/31 11:19:24;;;;;;;;;;;20.20;77.10;;;18.29;77.16;101413.97;5008980;28;19941;-69